Time;durP1;ratioP1;P1;durP2;ratioP2;P2;SDS_P1;SDS_P2;PMS_P1;PMS_P2;Temp;Humidity;BMP_temperature;BMP_pressure;BME280_temperature;BME280_humidity;BME280_pressure;Samples;Min_cycle;Max_cycle;Signal;HPM_P1;HPM_P2
2023/03/02 00:01:39;;;;;;;7.60;2.17;;;;;;;13.33;100.00;102968.84;5009122;28;20042;-69
2023/03/02 00:04:09;;;;;;;4.55;1.20;;;;;;;13.46;100.00;102968.28;4995529;28;20081;-69
2023/03/02 00:06:36;;;;;;;9.20;2.03;;;;;;;13.13;100.00;102964.19;4993696;28;20084;-69
2023/03/02 00:09:04;;;;;;;8.68;1.45;;;;;;;12.88;100.00;102962.28;4993201;28;20030;-69
2023/03/02 00:11:33;;;;;;;8.18;2.25;;;;;;;12.84;100.00;102957.59;4999205;28;20455;-68
2023/03/02 00:13:59;;;;;;;12.55;1.73;;;;;;;12.72;100.00;102945.00;5012723;28;20036;-69
2023/03/02 00:16:25;;;;;;;9.77;2.00;;;;;;;12.96;100.00;102952.69;5011216;28;20034;-69
2023/03/02 00:18:53;;;;;;;7.18;2.08;;;;;;;13.10;100.00;102962.00;4986903;28;20084;-69
2023/03/02 00:21:18;;;;;;;10.23;1.60;;;;;;;13.06;100.00;102955.41;4980154;28;20439;-69
2023/03/02 00:23:44;;;;;;;10.23;1.88;;;;;;;13.67;100.00;102957.22;5011964;28;20061;-69
2023/03/02 00:26:10;;;;;;;13.50;2.38;;;;;;;13.87;100.00;102955.22;5012684;28;20061;-69
2023/03/02 00:28:37;;;;;;;8.27;2.33;;;;;;;13.55;100.00;102943.81;5012427;28;20034;-69
2023/03/02 00:31:05;;;;;;;15.48;2.72;;;;;;;13.72;100.00;102943.47;5012232;28;20036;-69
2023/03/02 00:33:31;;;;;;;10.48;2.38;;;;;;;13.38;100.00;102943.31;5012527;28;20022;-69
2023/03/02 00:35:57;;;;;;;11.57;3.55;;;;;;;13.46;100.00;102935.34;4986624;28;20022;-69
2023/03/02 00:38:23;;;;;;;12.25;2.67;;;;;;;13.59;100.00;102933.91;4992434;28;20077;-69
2023/03/02 00:40:49;;;;;;;12.63;2.40;;;;;;;13.38;100.00;102937.84;4994343;28;20030;-70
2023/03/02 00:43:16;;;;;;;7.75;2.70;;;;;;;13.37;100.00;102927.91;5012467;28;20431;-69
2023/03/02 00:45:42;;;;;;;11.52;2.28;;;;;;;13.27;100.00;102931.53;5012550;28;20025;-69
2023/03/02 00:48:08;;;;;;;13.20;2.55;;;;;;;13.15;100.00;102931.81;5011559;28;20038;-70
2023/03/02 00:50:39;;;;;;;18.45;3.78;;;;;;;13.05;100.00;102918.06;4992987;28;20044;-70
2023/03/02 00:53:07;;;;;;;9.80;3.10;;;;;;;13.04;100.00;102917.25;5005143;28;20445;-70
2023/03/02 00:55:32;;;;;;;16.25;3.22;;;;;;;13.09;100.00;102915.63;4992973;28;20480;-70
2023/03/02 00:57:58;;;;;;;11.10;2.88;;;;;;;13.14;100.00;102930.13;4997633;28;20038;-70
2023/03/02 01:00:26;;;;;;;12.35;3.38;;;;;;;13.24;100.00;102918.38;4992769;28;20450;-70
2023/03/02 01:02:52;;;;;;;10.38;2.83;;;;;;;13.05;100.00;102916.16;4992876;28;20034;-69
2023/03/02 01:05:17;;;;;;;14.65;3.33;;;;;;;13.39;100.00;102928.50;4999730;28;20030;-69
2023/03/02 01:07:43;;;;;;;11.45;2.88;;;;;;;13.49;100.00;102923.78;4997430;28;20415;-70
2023/03/02 01:10:10;;;;;;;13.65;3.17;;;;;;;13.36;100.00;102931.78;4992609;28;20065;-70
2023/03/02 01:12:35;;;;;;;13.30;2.50;;;;;;;13.53;100.00;102922.13;5006749;28;20034;-70
2023/03/02 01:15:01;;;;;;;10.82;3.50;;;;;;;13.49;100.00;102928.44;4993534;28;20072;-69
2023/03/02 01:17:27;;;;;;;12.52;2.97;;;;;;;13.44;100.00;102925.72;5010457;28;20041;-70
2023/03/02 01:19:53;;;;;;;13.30;3.70;;;;;;;13.60;100.00;102928.16;4997945;28;20038;-70
2023/03/02 01:22:19;;;;;;;21.73;3.47;;;;;;;13.52;100.00;102917.72;4975119;28;20125;-69
2023/03/02 01:24:45;;;;;;;11.20;2.67;;;;;;;13.49;100.00;102918.28;4992121;28;20038;-69
2023/03/02 01:27:10;;;;;;;13.60;2.58;;;;;;;13.41;100.00;102907.88;4992421;28;20061;-70
2023/03/02 01:29:36;;;;;;;14.25;3.80;;;;;;;13.69;100.00;102900.09;4993224;28;20032;-70
2023/03/02 01:32:03;;;;;;;22.30;3.20;;;;;;;13.76;100.00;102900.63;5005907;28;20392;-69
2023/03/02 01:34:29;;;;;;;19.85;3.92;;;;;;;13.74;100.00;102887.13;4992751;28;20035;-69
2023/03/02 01:36:55;;;;;;;17.13;4.10;;;;;;;13.84;100.00;102892.59;4996718;28;20040;-69
2023/03/02 01:39:21;;;;;;;8.30;2.80;;;;;;;13.63;100.00;102890.22;4999204;28;20396;-70
2023/03/02 01:41:50;;;;;;;14.70;2.80;;;;;;;13.23;100.00;102881.84;4992432;28;20046;-69
2023/03/02 01:44:55;;;;;;;11.38;2.45;;;;;;;13.29;100.00;102885.38;5001912;28;20038;-69
2023/03/02 01:47:29;;;;;;;20.02;5.18;;;;;;;13.35;100.00;102881.53;4929025;29;20032;-69
2023/03/02 01:50:00;;;;;;;14.98;3.28;;;;;;;13.34;100.00;102882.63;4993010;28;20039;-69
2023/03/02 01:52:28;;;;;;;8.60;2.50;;;;;;;13.48;100.00;102874.63;5010493;28;20029;-69
2023/03/02 01:54:57;;;;;;;13.18;3.08;;;;;;;13.91;100.00;102870.31;5010529;28;20038;-69
2023/03/02 01:57:29;;;;;;;15.55;3.75;;;;;;;13.68;100.00;102873.69;5011777;28;20408;-69
2023/03/02 01:59:59;;;;;;;19.85;3.00;;;;;;;13.51;100.00;102874.06;5010806;28;20040;-69
2023/03/02 02:02:26;;;;;;;8.43;2.65;;;;;;;13.48;100.00;102874.63;4994933;28;20370;-69
2023/03/02 02:04:53;;;;;;;11.70;2.92;;;;;;;13.26;100.00;102867.56;5011921;28;20037;-69
2023/03/02 02:07:19;;;;;;;13.60;2.42;;;;;;;13.49;100.00;102868.03;4985055;28;20390;-69
2023/03/02 02:09:48;;;;;;;10.73;2.85;;;;;;;13.43;100.00;102863.66;5007751;28;20033;-69
2023/03/02 02:12:20;;;;;;;8.07;2.58;;;;;;;12.96;100.00;102859.38;5011703;28;20127;-69
2023/03/02 02:14:47;;;;;;;12.88;3.38;;;;;;;13.34;100.00;102857.91;5011278;28;20038;-69
2023/03/02 02:17:13;;;;;;;10.63;1.88;;;;;;;12.89;100.00;102859.66;5010200;28;20164;-69
2023/03/02 02:19:57;;;;;;;10.60;2.58;;;;;;;12.75;100.00;102848.44;4999253;28;20034;-69
2023/03/02 02:22:31;;;;;;;5.93;2.40;;;;;;;12.86;100.00;102852.00;5003781;28;20212;-69
2023/03/02 02:25:02;;;;;;;8.35;2.53;;;;;;;12.63;100.00;102850.66;5011477;28;20025;-69
2023/03/02 02:30:54;;;;;;;7.97;2.50;;;;;;;13.31;100.00;102848.34;4953633;29;20106;-69
2023/03/02 02:33:24;;;;;;;13.05;2.60;;;;;;;13.46;100.00;102841.97;4993588;28;20034;-69
2023/03/02 02:35:54;;;;;;;16.13;3.20;;;;;;;13.40;100.00;102839.50;5014898;28;20490;-69
2023/03/02 02:38:20;;;;;;;;;;;;;;;13.45;100.00;102829.34;4986370;28;20132;-69
2023/03/02 02:40:58;;;;;;;10.13;2.03;;;;;;;13.10;100.00;102819.28;5012936;28;19971;-69
2023/03/02 02:43:26;;;;;;;18.05;2.75;;;;;;;13.23;100.00;102828.88;5014702;28;20084;-69
2023/03/02 02:45:55;;;;;;;12.73;2.70;;;;;;;12.51;100.00;102819.94;4999119;28;20030;-69
2023/03/02 02:48:23;;;;;;;21.80;3.65;;;;;;;12.60;100.00;102822.94;5005136;28;20041;-69
2023/03/02 02:50:59;;;;;;;7.72;2.28;;;;;;;12.95;100.00;102806.41;5008412;28;20027;-69
2023/03/02 02:53:36;;;;;;;10.40;3.72;;;;;;;13.14;100.00;102814.03;4978155;28;20452;-69
2023/03/02 02:56:05;;;;;;;9.25;2.47;;;;;;;12.85;100.00;102803.72;4995261;28;20038;-69
2023/03/02 02:58:52;;;;;;;6.82;2.17;;;;;;;12.62;100.00;102798.78;5001953;28;20061;-69
2023/03/02 03:01:24;;;;;;;7.60;2.28;;;;;;;13.11;100.00;102798.13;5007107;28;20072;-69
2023/03/02 03:04:01;;;;;;;10.77;3.17;;;;;;;13.21;100.00;102785.22;4994112;28;20032;-69
2023/03/02 03:06:40;;;;;;;12.05;2.65;;;;;;;12.72;100.00;102791.38;4994895;28;20038;-69
2023/03/02 03:09:08;;;;;;;9.80;2.60;;;;;;;12.51;100.00;102784.28;5001076;28;20113;-69
2023/03/02 03:11:38;;;;;;;12.85;3.50;;;;;;;12.53;100.00;102778.53;4999737;28;20494;-69
2023/03/02 03:14:07;;;;;;;14.38;2.78;;;;;;;12.67;100.00;102782.34;4994903;28;20057;-69
2023/03/02 03:16:34;;;;;;;8.05;2.38;;;;;;;12.48;100.00;102777.44;4995618;28;20038;-69
2023/03/02 03:19:10;;;;;;;13.50;3.58;;;;;;;12.72;100.00;102777.66;5000489;28;20042;-69
2023/03/02 03:21:35;;;;;;;11.77;2.47;;;;;;;12.95;100.00;102781.72;5003026;28;20034;-69
2023/03/02 03:24:01;;;;;;;10.20;2.30;;;;;;;13.32;100.00;102769.53;4994527;28;20076;-69
2023/03/02 03:26:27;;;;;;;6.65;2.13;;;;;;;12.64;100.00;102766.44;5004408;28;20039;-69
2023/03/02 03:28:56;;;;;;;11.98;3.35;;;;;;;12.78;100.00;102768.34;5007472;28;20485;-69
2023/03/02 03:31:23;;;;;;;12.95;2.40;;;;;;;12.68;100.00;102768.34;5014154;28;20033;-68
2023/03/02 03:33:48;;;;;;;8.25;2.33;;;;;;;12.94;100.00;102773.78;5014294;28;20318;-69
2023/03/02 03:36:14;;;;;;;16.15;2.65;;;;;;;12.88;100.00;102763.91;5012272;28;20541;-69
2023/03/02 03:38:40;;;;;;;9.15;2.67;;;;;;;13.21;100.00;102768.75;5008249;28;20087;-69
2023/03/02 03:41:06;;;;;;;12.75;2.78;;;;;;;13.43;100.00;102767.53;5005164;28;20070;-69
2023/03/02 03:43:31;;;;;;;23.40;2.97;;;;;;;13.41;100.00;102762.34;5014065;28;20030;-69
2023/03/02 03:45:57;;;;;;;12.43;3.08;;;;;;;13.37;100.00;102753.00;4996422;28;20034;-69
2023/03/02 03:48:22;;;;;;;17.85;3.55;;;;;;;13.27;100.00;102759.38;4994180;28;20483;-69
2023/03/02 03:50:48;;;;;;;12.43;3.15;;;;;;;13.39;100.00;102752.75;4993930;28;20022;-69
2023/03/02 03:53:14;;;;;;;9.25;2.65;;;;;;;13.32;100.00;102755.81;4993673;28;20416;-68
2023/03/02 03:55:39;;;;;;;11.82;3.22;;;;;;;13.36;100.00;102751.38;4994090;28;20033;-69
2023/03/02 03:58:05;;;;;;;13.57;3.03;;;;;;;13.30;100.00;102753.34;5011102;28;20025;-68
2023/03/02 04:00:31;;;;;;;13.30;2.83;;;;;;;13.28;100.00;102765.69;5013003;28;20030;-69
2023/03/02 04:02:56;;;;;;;13.45;3.63;;;;;;;13.44;100.00;102760.94;5013437;28;20021;-69
2023/03/02 04:05:22;;;;;;;13.60;2.65;;;;;;;13.19;100.00;102759.94;5013591;28;20054;-69
2023/03/02 04:07:48;;;;;;;12.48;2.83;;;;;;;13.52;100.00;102750.19;4995264;28;20495;-69
2023/03/02 04:10:13;;;;;;;10.73;2.63;;;;;;;13.37;100.00;102750.25;5013063;28;20054;-69
2023/03/02 04:12:40;;;;;;;13.27;2.30;;;;;;;13.48;100.00;102762.03;5013396;28;20096;-69
2023/03/02 04:15:11;;;;;;;10.18;2.38;;;;;;;13.29;100.00;102753.59;5013343;28;20029;-69
2023/03/02 04:17:37;;;;;;;12.50;2.35;;;;;;;13.32;100.00;102756.63;4994980;28;20429;-69
2023/03/02 04:20:06;;;;;;;14.25;3.97;;;;;;;13.72;100.00;102751.16;4999113;28;20057;-69
2023/03/02 04:22:32;;;;;;;12.20;2.33;;;;;;;13.67;100.00;102742.94;5009986;28;20030;-69
2023/03/02 04:24:58;;;;;;;12.65;2.92;;;;;;;13.51;100.00;102740.28;5012858;28;20030;-69
2023/03/02 04:27:23;;;;;;;10.63;3.00;;;;;;;13.70;100.00;102736.91;5012985;28;20125;-69
2023/03/02 04:29:51;;;;;;;12.85;2.60;;;;;;;13.52;100.00;102743.84;4994374;28;20095;-69
2023/03/02 04:32:17;;;;;;;12.63;3.03;;;;;;;13.35;100.00;102751.66;4997261;28;20113;-69
2023/03/02 04:34:43;;;;;;;14.07;2.88;;;;;;;13.62;100.00;102741.06;4993168;28;20121;-69
2023/03/02 04:37:09;;;;;;;13.45;2.80;;;;;;;13.48;100.00;102732.63;4993499;28;20038;-69
2023/03/02 04:39:34;;;;;;;11.60;3.13;;;;;;;13.30;100.00;102741.53;5008816;28;20062;-69
2023/03/02 04:42:00;;;;;;;17.20;3.35;;;;;;;13.37;100.00;102747.50;5000621;28;20021;-69
2023/03/02 04:44:26;;;;;;;14.43;2.40;;;;;;;13.50;100.00;102735.09;5012651;28;20034;-69
2023/03/02 04:46:51;;;;;;;19.95;4.45;;;;;;;13.66;100.00;102731.13;4999581;28;20456;-69
2023/03/02 04:49:18;;;;;;;22.42;3.47;;;;;;;13.77;100.00;102731.91;4992742;28;20034;-69
2023/03/02 04:51:46;;;;;;;17.98;2.95;;;;;;;13.52;100.00;102727.38;4998704;28;20412;-69
2023/03/02 04:54:24;;;;;;;14.13;2.88;;;;;;;13.56;100.00;102728.47;5001928;28;20033;-69
2023/03/02 04:56:50;;;;;;;7.85;2.50;;;;;;;13.63;100.00;102730.91;5012166;28;20091;-69
2023/03/02 04:59:18;;;;;;;15.35;3.08;;;;;;;13.75;100.00;102726.69;4980462;28;20474;-69
2023/03/02 05:01:44;;;;;;;9.18;2.58;;;;;;;13.86;100.00;102736.50;4999625;28;20038;-69
2023/03/02 05:04:11;;;;;;;13.30;3.53;;;;;;;13.82;100.00;102734.59;4994169;28;20034;-68
2023/03/02 05:06:37;;;;;;;10.25;2.78;;;;;;;14.19;100.00;102735.94;4991948;28;20165;-69
2023/03/02 05:09:03;;;;;;;6.32;1.70;;;;;;;14.23;100.00;102737.00;4992898;28;20117;-69
2023/03/02 05:11:29;;;;;;;10.38;2.60;;;;;;;14.27;100.00;102733.38;4978344;28;20061;-69
2023/03/02 05:13:59;;;;;;;12.20;2.28;;;;;;;14.15;100.00;102738.47;5012215;28;20038;-69
2023/03/02 05:16:30;;;;;;;10.45;2.40;;;;;;;14.18;100.00;102739.81;4992675;28;20064;-69
2023/03/02 05:18:57;;;;;;;6.88;1.77;;;;;;;13.93;100.00;102740.84;5007340;28;20026;-69
2023/03/02 05:21:23;;;;;;;8.63;1.63;;;;;;;13.87;100.00;102738.13;4998516;28;20588;-69
2023/03/02 05:23:48;;;;;;;8.90;1.90;;;;;;;13.61;100.00;102739.44;5012473;28;20037;-69
2023/03/02 05:26:15;;;;;;;10.20;3.13;;;;;;;13.74;100.00;102732.47;5011956;28;20030;-69
2023/03/02 05:28:40;;;;;;;11.88;2.33;;;;;;;13.73;100.00;102730.81;5002153;28;20042;-69
2023/03/02 05:31:06;;;;;;;10.45;1.83;;;;;;;13.76;100.00;102731.09;4995282;28;20034;-69
2023/03/02 05:33:32;;;;;;;5.65;1.42;;;;;;;13.82;100.00;102734.59;4992530;28;20030;-69
2023/03/02 05:35:59;;;;;;;5.00;1.88;;;;;;;13.87;100.00;102731.81;4992036;28;20030;-69
2023/03/02 05:38:26;;;;;;;8.77;1.60;;;;;;;14.16;100.00;102723.59;4993384;28;20053;-69
2023/03/02 05:40:52;;;;;;;7.15;1.30;;;;;;;14.07;100.00;102719.84;4994555;28;20030;-69
2023/03/02 05:43:20;;;;;;;5.05;1.85;;;;;;;13.93;100.00;102725.19;5012179;28;20042;-69
2023/03/02 05:45:46;;;;;;;7.82;1.52;;;;;;;13.95;100.00;102714.72;5009989;28;20057;-69
2023/03/02 05:48:13;;;;;;;11.13;2.63;;;;;;;13.88;100.00;102723.28;4992705;28;20035;-69
2023/03/02 05:50:39;;;;;;;6.50;1.80;;;;;;;13.97;100.00;102723.47;5000296;28;20485;-69
2023/03/02 05:53:05;;;;;;;7.90;2.25;;;;;;;13.96;100.00;102732.84;5011587;28;20065;-69
2023/03/02 05:55:35;;;;;;;10.13;2.55;;;;;;;13.83;100.00;102730.75;5011712;28;20026;-69
2023/03/02 05:58:06;;;;;;;12.98;2.30;;;;;;;13.64;100.00;102722.38;5007310;28;20113;-69
2023/03/02 06:00:32;;;;;;;10.57;1.95;;;;;;;13.51;100.00;102715.59;4999419;28;20057;-68
2023/03/02 06:02:57;;;;;;;15.75;1.85;;;;;;;13.59;100.00;102723.22;5014933;28;20034;-69
2023/03/02 06:05:23;;;;;;;11.77;3.17;;;;;;;13.54;100.00;102719.69;5015413;28;20392;-69
2023/03/02 06:07:49;;;;;;;9.52;2.20;;;;;;;13.41;100.00;102723.91;5014594;28;20033;-69
2023/03/02 06:10:14;;;;;;;7.20;1.80;;;;;;;13.36;100.00;102723.09;4992907;28;20054;-69
2023/03/02 06:12:40;;;;;;;7.45;2.67;;;;;;;13.52;100.00;102719.16;4978268;28;20427;-69
2023/03/02 06:15:06;;;;;;;9.48;3.08;;;;;;;13.26;100.00;102733.03;4995949;28;20034;-69
2023/03/02 06:17:32;;;;;;;6.15;2.05;;;;;;;13.28;100.00;102722.59;5004866;28;20502;-69
2023/03/02 06:19:58;;;;;;;3.70;1.42;;;;;;;13.35;100.00;102715.97;4998926;28;20034;-69
2023/03/02 06:22:23;;;;;;;5.47;1.85;;;;;;;13.45;100.00;102710.41;4998301;28;20034;-69
2023/03/02 06:24:49;;;;;;;9.45;2.28;;;;;;;13.50;100.00;102729.59;5015328;28;20041;-69
2023/03/02 06:27:15;;;;;;;13.45;2.88;;;;;;;13.41;100.00;102715.66;5015338;28;20468;-69
2023/03/02 06:29:40;;;;;;;5.43;1.58;;;;;;;13.50;100.00;102718.63;4997576;28;20072;-69
2023/03/02 06:32:06;;;;;;;12.27;2.90;;;;;;;13.41;100.00;102729.38;5015462;28;20021;-69
2023/03/02 06:34:32;;;;;;;9.15;1.48;;;;;;;13.35;100.00;102708.56;5015683;28;20099;-69
2023/03/02 06:36:57;;;;;;;10.77;2.10;;;;;;;13.35;100.00;102724.19;5016606;28;20030;-69
2023/03/02 06:39:23;;;;;;;3.78;0.90;;;;;;;13.25;100.00;102725.91;5035044;28;20109;-69
2023/03/02 06:41:49;;;;;;;5.38;1.92;;;;;;;13.39;100.00;102719.81;5035020;28;20081;-69
2023/03/02 06:44:16;;;;;;;7.85;1.70;;;;;;;13.40;100.00;102732.41;5034537;28;20057;-69
2023/03/02 06:46:42;;;;;;;5.28;1.30;;;;;;;13.27;100.00;102723.69;5016798;28;20116;-69
2023/03/02 06:49:09;;;;;;;6.20;1.50;;;;;;;13.25;100.00;102725.09;5034876;28;20112;-68
2023/03/02 06:51:35;;;;;;;9.38;2.25;;;;;;;13.41;100.00;102715.66;5034027;28;20035;-68
2023/03/02 06:54:01;;;;;;;5.15;1.63;;;;;;;13.44;100.00;102717.81;4998478;28;20109;-69
2023/03/02 06:56:26;;;;;;;7.95;2.40;;;;;;;13.39;100.00;102719.81;4999507;28;20109;-69
2023/03/02 06:58:52;;;;;;;6.90;1.30;;;;;;;13.41;100.00;102707.41;5014388;28;20037;-69
2023/03/02 07:01:18;;;;;;;10.18;1.80;;;;;;;13.38;100.00;102715.41;5002448;28;20041;-69
2023/03/02 07:03:44;;;;;;;10.65;1.58;;;;;;;13.33;100.00;102722.56;4994847;28;20503;-68
2023/03/02 07:06:13;;;;;;;4.40;1.30;;;;;;;13.31;100.00;102718.47;4994354;28;20038;-68
2023/03/02 07:08:39;;;;;;;3.80;1.40;;;;;;;13.26;100.00;102730.28;4995231;28;20101;-69
2023/03/02 07:11:10;;;;;;;5.35;1.48;;;;;;;13.30;100.00;102730.56;5004774;28;20038;-69
2023/03/02 07:13:39;;;;;;;5.28;0.80;;;;;;;13.27;100.00;102742.91;5013545;28;20137;-68
2023/03/02 07:16:13;;;;;;;9.43;2.27;;;;;;;13.35;100.00;102733.25;5013033;28;20022;-69
2023/03/02 07:18:39;;;;;;;10.55;2.10;;;;;;;13.43;100.00;102735.41;5000895;28;20025;-69
2023/03/02 07:21:05;;;;;;;12.45;2.10;;;;;;;13.53;100.00;102729.88;4999442;28;20483;-68
2023/03/02 07:23:32;;;;;;;13.40;3.05;;;;;;;13.53;100.00;102734.53;4977218;28;20050;-69
2023/03/02 07:25:57;;;;;;;11.43;1.55;;;;;;;13.59;100.00;102730.63;4994683;28;20441;-69
2023/03/02 07:28:24;;;;;;;6.28;1.92;;;;;;;13.59;100.00;102730.63;4994707;28;20113;-70
2023/03/02 07:30:52;;;;;;;13.85;2.97;;;;;;;13.59;100.00;102744.38;5002621;28;20213;-69
2023/03/02 07:33:19;;;;;;;10.02;2.42;;;;;;;13.72;100.00;102743.72;5014157;28;20469;-69
2023/03/02 07:35:45;;;;;;;9.70;1.70;;;;;;;13.63;100.00;102744.63;5013183;28;20060;-69
2023/03/02 07:38:11;;;;;;;11.63;1.83;;;;;;;13.57;100.00;102747.41;4999572;28;20444;-69
2023/03/02 07:40:42;;;;;;;9.85;2.28;;;;;;;13.53;100.00;102748.28;4983372;28;20034;-69
2023/03/02 07:43:08;;;;;;;9.55;1.83;;;;;;;13.66;100.00;102752.28;4995321;28;20027;-68
2023/03/02 07:45:34;;;;;;;7.60;1.20;;;;;;;13.49;100.00;102752.69;4996581;28;20033;-69
2023/03/02 07:48:00;;;;;;;13.70;2.05;;;;;;;13.76;100.00;102749.50;5012505;28;20018;-69
2023/03/02 07:50:25;;;;;;;9.30;1.70;;;;;;;13.61;100.00;102750.41;5008978;28;20064;-68
2023/03/02 07:52:51;;;;;;;2.28;0.80;;;;;;;13.41;100.00;102762.34;5013763;28;20117;-68
2023/03/02 07:55:16;;;;;;;3.28;0.93;;;;;;;13.38;100.00;102764.84;5012911;28;20029;-69
2023/03/02 07:57:42;;;;;;;2.58;1.00;;;;;;;13.39;100.00;102763.72;4995338;28;20507;-69
2023/03/02 08:00:08;;;;;;;8.23;1.73;;;;;;;13.64;100.00;102755.34;4994247;28;20042;-68
2023/03/02 08:02:34;;;;;;;15.10;2.22;;;;;;;13.45;100.00;102766.19;5006471;28;20034;-69
2023/03/02 08:04:59;;;;;;;8.38;1.90;;;;;;;13.66;100.00;102761.34;5004697;28;20023;-68
2023/03/02 08:07:25;;;;;;;7.68;2.33;;;;;;;13.44;100.00;102771.94;4992519;28;20030;-68
2023/03/02 08:09:51;;;;;;;5.07;1.90;;;;;;;13.49;100.00;102778.22;5009378;28;20075;-68
2023/03/02 08:12:16;;;;;;;10.50;2.10;;;;;;;13.55;100.00;102771.59;5016663;28;20053;-69
2023/03/02 08:14:42;;;;;;;7.10;1.90;;;;;;;13.57;100.00;102780.38;5011724;28;20033;-68
2023/03/02 08:17:07;;;;;;;3.83;1.50;;;;;;;13.62;100.00;102779.53;5012075;28;20525;-69
2023/03/02 08:19:33;;;;;;;8.75;1.50;;;;;;;13.86;100.00;102768.66;5010812;28;20029;-69
2023/03/02 08:22:00;;;;;;;6.82;2.00;;;;;;;13.76;100.00;102775.03;4997029;28;20026;-68
2023/03/02 08:24:25;;;;;;;7.90;1.42;;;;;;;13.80;100.00;102776.09;4999867;28;20038;-68
2023/03/02 08:26:51;;;;;;;2.22;0.65;;;;;;;13.66;100.00;102788.81;4993558;28;20030;-69
2023/03/02 08:29:17;;;;;;;4.22;1.30;;;;;;;13.92;100.00;102774.94;4993417;28;20412;-69
2023/03/02 08:31:43;;;;;;;2.60;1.15;;;;;;;14.03;100.00;102777.31;5010088;28;20034;-69
2023/03/02 08:34:09;;;;;;;12.98;2.90;;;;;;;14.05;100.00;102775.09;4975684;28;20069;-69
2023/03/02 08:36:34;;;;;;;18.75;7.45;;;;;;;14.27;100.00;102773.81;5004725;28;20419;-68
2023/03/02 08:39:00;;;;;;;7.03;1.48;;;;;;;14.18;100.00;102778.28;5013265;28;20044;-68
2023/03/02 08:41:25;;;;;;;7.38;1.17;;;;;;;14.13;100.00;102780.00;5012986;28;20053;-68
2023/03/02 08:43:54;;;;;;;13.07;4.93;;;;;;;14.37;100.00;102776.47;5012910;28;20105;-69
2023/03/02 08:46:20;;;;;;;4.78;1.80;;;;;;;14.58;100.00;102782.63;5013361;28;20022;-69
2023/03/02 08:48:46;;;;;;;14.65;5.45;;;;;;;14.69;100.00;102782.22;5013354;28;20487;-69
2023/03/02 08:51:14;;;;;;;6.07;1.75;;;;;;;14.69;100.00;102786.91;5013044;28;20472;-69
2023/03/02 08:53:42;;;;;;;3.33;1.10;;;;;;;14.75;100.00;102787.69;5012901;28;20515;-68
2023/03/02 08:56:18;;;;;;;8.10;1.42;;;;;;;14.62;100.00;102792.75;5011429;28;20112;-68
2023/03/02 08:58:43;;;;;;;15.15;3.30;;;;;;;14.76;100.00;102790.16;5013194;28;20037;-69
2023/03/02 09:01:21;;;;;;;5.65;1.45;;;;;;;14.65;100.00;102780.34;5012990;28;20388;-70
2023/03/02 09:03:46;;;;;;;4.22;1.20;;;;;;;14.76;100.00;102792.91;5012317;28;20030;-69
2023/03/02 09:06:12;;;;;;;9.18;1.75;;;;;;;14.80;100.00;102791.19;4994740;28;20033;-69
2023/03/02 09:08:38;;;;;;;4.47;1.60;;;;;;;14.74;100.00;102788.81;5012248;28;20034;-70
2023/03/02 09:11:04;;;;;;;9.43;2.00;;;;;;;14.78;100.00;102789.84;5012318;28;20054;-69
2023/03/02 09:13:30;;;;;;;10.50;2.38;;;;;;;14.87;100.00;102785.34;5012687;28;20092;-69
2023/03/02 09:15:56;;;;;;;6.97;2.05;;;;;;;14.98;100.00;102793.22;5012486;28;20034;-69
2023/03/02 09:18:21;;;;;;;9.18;1.88;;;;;;;15.04;100.00;102791.22;5012273;28;20542;-69
2023/03/02 09:20:51;;;;;;;9.43;2.22;;;;;;;15.19;100.00;102793.78;5012677;28;20061;-70
2023/03/02 09:23:17;;;;;;;;;;;;;;;15.18;100.00;102803.13;5013324;28;20022;-70
2023/03/02 09:25:43;;;;;;;7.82;1.35;;;;;;;14.95;100.00;102795.72;5012760;28;20011;-70
2023/03/02 09:28:09;;;;;;;5.97;1.23;;;;;;;15.16;100.00;102805.38;5012450;28;20388;-72
2023/03/02 09:30:35;;;;;;;8.27;1.85;;;;;;;15.20;100.00;102800.13;5023153;28;20546;-70
2023/03/02 09:33:00;;;;;;;5.43;1.27;;;;;;;15.11;100.00;102804.59;5032330;28;20025;-70
2023/03/02 09:35:26;;;;;;;7.68;1.88;;;;;;;15.04;100.00;102801.38;5018528;28;20560;-68
2023/03/02 09:37:51;;;;;;;6.53;1.83;;;;;;;14.96;100.00;102808.34;5015879;28;20076;-69
2023/03/02 09:40:26;;;;;;;8.25;2.10;;;;;;;14.91;100.00;102808.44;4999070;28;20389;-69
2023/03/02 09:42:58;;;;;;;4.85;1.70;;;;;;;15.02;100.00;102809.13;5016283;28;20104;-70
2023/03/02 09:45:57;;;;;;;7.22;1.52;;;;;;;15.05;100.00;102806.63;5016531;28;20437;-70
2023/03/02 09:48:38;;;;;;;8.23;1.75;;;;;;;15.05;100.00;102803.06;5016731;28;20061;-70
2023/03/02 09:51:27;;;;;;;14.85;1.88;;;;;;;14.93;100.00;102808.94;4998710;28;20038;-69
2023/03/02 09:54:13;;;;;;;6.07;0.90;;;;;;;14.72;100.00;102808.34;5016400;28;20026;-70
2023/03/02 09:56:58;;;;;;;6.45;1.98;;;;;;;14.51;100.00;102812.41;5015960;28;20041;-71
2023/03/02 09:59:47;;;;;;;5.63;1.35;;;;;;;14.56;100.00;102806.84;5016184;28;20110;-69
2023/03/02 10:02:31;;;;;;;4.50;1.23;;;;;;;14.39;100.00;102810.00;5016482;28;20057;-69
2023/03/02 10:05:00;;;;;;;8.32;1.63;;;;;;;14.23;100.00;102808.50;5015946;28;20029;-69
2023/03/02 10:07:31;;;;;;;4.35;1.27;;;;;;;14.59;100.00;102815.38;4997527;28;20030;-68
2023/03/02 10:10:21;;;;;;;8.65;2.05;;;;;;;14.74;100.00;102810.81;5021396;28;20434;-71
2023/03/02 10:12:53;;;;;;;;;;;;;;;14.54;100.00;102806.34;5012838;28;20061;-73
2023/03/02 10:15:36;;;;;;;6.95;1.92;;;;;;;14.77;100.00;102813.81;5015930;28;19924;-68
2023/03/02 10:18:23;;;;;;;8.35;1.95;;;;;;;14.64;100.00;102814.47;5035194;28;20031;-68
2023/03/02 10:21:20;;;;;;;10.30;2.78;;;;;;;14.57;100.00;102800.25;5030617;28;20024;-69
2023/03/02 10:23:52;;;;;;;11.00;1.52;;;;;;;14.89;100.00;102813.41;5007073;28;20067;-68
2023/03/02 10:26:42;;;;;;;6.25;1.48;;;;;;;14.97;100.00;102815.53;5026773;28;20161;-68
2023/03/02 10:29:29;;;;;;;8.32;2.05;;;;;;;15.28;100.00;102813.22;5013537;28;20052;-68
2023/03/02 10:32:17;;;;;;;2.85;0.88;;;;;;;15.48;100.00;102815.69;5019187;28;20041;-68
2023/03/02 10:34:42;;;;;;;4.30;1.63;;;;;;;15.67;100.00;102814.94;5034449;28;20037;-70
2023/03/02 10:37:14;;;;;;;4.50;1.25;;;;;;;15.49;100.00;102824.78;5034632;28;20029;-70
2023/03/02 10:39:40;;;;;;;8.10;1.55;;;;;;;15.77;100.00;102817.53;5033477;28;20032;-68
2023/03/02 10:42:14;;;;;;;4.30;0.80;;;;;;;15.55;100.00;102820.84;5027841;28;20030;-69
2023/03/02 10:44:44;;;;;;;2.25;0.80;;;;;;;15.20;100.00;102827.66;5034045;28;20483;-68
2023/03/02 10:47:23;;;;;;;5.03;1.35;;;;;;;15.30;100.00;102823.94;5034591;28;20480;-68
2023/03/02 10:49:50;;;;;;;5.82;1.05;;;;;;;15.24;100.00;102820.41;5032585;28;20079;-68
2023/03/02 10:52:25;;;;;;;2.83;1.30;;;;;;;15.19;100.00;102818.56;5028087;28;20025;-69
2023/03/02 10:55:13;;;;;;;4.00;1.77;;;;;;;15.08;100.00;102825.28;5033788;28;20017;-68
2023/03/02 10:57:42;;;;;;;3.90;1.27;;;;;;;15.15;100.00;102823.00;5034214;28;20160;-74
2023/03/02 11:00:14;;;;;;;3.83;1.25;;;;;;;15.30;100.00;102827.50;5012474;28;20033;-68
2023/03/02 11:02:50;;;;;;;7.82;1.48;;;;;;;15.14;100.00;102828.81;5030871;28;20431;-68
2023/03/02 11:05:37;;;;;;;15.43;1.88;;;;;;;14.93;100.00;102834.53;5034165;28;20053;-67
2023/03/02 11:08:10;;;;;;;5.10;1.30;;;;;;;15.39;100.00;102834.00;5034256;28;20052;-70
2023/03/02 11:10:40;;;;;;;4.63;1.75;;;;;;;15.35;100.00;102826.66;5026691;28;20045;-67
2023/03/02 11:13:16;;;;;;;;;;;;;;;15.20;100.00;102831.22;5033939;28;20029;-69
2023/03/02 11:15:50;;;;;;;9.45;1.75;;;;;;;15.51;100.00;102830.84;5034078;28;19919;-70
2023/03/02 11:18:41;;;;;;;8.50;1.58;;;;;;;15.34;100.00;102825.81;5034064;28;20526;-69
2023/03/02 11:21:12;;;;;;;23.60;2.80;;;;;;;15.23;100.00;102825.13;5025557;28;20113;-69
2023/03/02 11:24:22;;;;;;;3.97;1.15;;;;;;;15.27;100.00;102831.69;5033855;28;20060;-69
2023/03/02 11:26:55;;;;;;;5.53;0.80;;;;;;;15.09;100.00;102829.69;5029909;28;20048;-71